sensor_id;sensor_type;location;lat;lon;timestamp;P1;durP1;ratioP1;P2;durP2;ratioP2
14282;SDS011;7225;59.282;18.344;2023-02-12T00:01:14;4.30;;;2.27;;
14282;SDS011;7225;59.282;18.344;2023-02-12T00:03:41;5.27;;;1.73;;
14282;SDS011;7225;59.282;18.344;2023-02-12T00:06:09;4.00;;;2.10;;
14282;SDS011;7225;59.282;18.344;2023-02-12T00:08:40;3.37;;;1.87;;
14282;SDS011;7225;59.282;18.344;2023-02-12T00:11:27;3.93;;;1.63;;
14282;SDS011;7225;59.282;18.344;2023-02-12T00:13:55;5.77;;;2.03;;
14282;SDS011;7225;59.282;18.344;2023-02-12T00:16:27;5.13;;;2.10;;
14282;SDS011;7225;59.282;18.344;2023-02-12T00:18:55;5.17;;;1.60;;
14282;SDS011;7225;59.282;18.344;2023-02-12T00:21:23;3.83;;;1.83;;
14282;SDS011;7225;59.282;18.344;2023-02-12T00:23:50;2.97;;;1.90;;
14282;SDS011;7225;59.282;18.344;2023-02-12T00:26:18;6.00;;;2.43;;
14282;SDS011;7225;59.282;18.344;2023-02-12T00:28:46;6.13;;;2.27;;
14282;SDS011;7225;59.282;18.344;2023-02-12T00:31:15;4.13;;;1.77;;
14282;SDS011;7225;59.282;18.344;2023-02-12T00:33:44;5.23;;;2.73;;
14282;SDS011;7225;59.282;18.344;2023-02-12T00:36:16;3.17;;;2.20;;
14282;SDS011;7225;59.282;18.344;2023-02-12T00:38:45;7.20;;;2.10;;
14282;SDS011;7225;59.282;18.344;2023-02-12T00:41:12;3.50;;;1.70;;
14282;SDS011;7225;59.282;18.344;2023-02-12T00:43:40;2.77;;;1.93;;
14282;SDS011;7225;59.282;18.344;2023-02-12T00:46:07;3.27;;;1.73;;
14282;SDS011;7225;59.282;18.344;2023-02-12T00:48:34;6.87;;;2.40;;
14282;SDS011;7225;59.282;18.344;2023-02-12T00:51:02;4.43;;;2.73;;
14282;SDS011;7225;59.282;18.344;2023-02-12T00:53:30;4.00;;;2.50;;
14282;SDS011;7225;59.282;18.344;2023-02-12T00:55:58;3.77;;;1.97;;
14282;SDS011;7225;59.282;18.344;2023-02-12T00:58:25;6.47;;;2.27;;
14282;SDS011;7225;59.282;18.344;2023-02-12T01:00:52;4.80;;;2.00;;
14282;SDS011;7225;59.282;18.344;2023-02-12T01:03:20;5.13;;;2.07;;
14282;SDS011;7225;59.282;18.344;2023-02-12T01:05:47;5.10;;;2.40;;
14282;SDS011;7225;59.282;18.344;2023-02-12T01:08:14;4.00;;;2.40;;
14282;SDS011;7225;59.282;18.344;2023-02-12T01:10:42;4.07;;;1.87;;
14282;SDS011;7225;59.282;18.344;2023-02-12T01:13:13;9.67;;;2.30;;
14282;SDS011;7225;59.282;18.344;2023-02-12T01:15:40;4.67;;;1.67;;
14282;SDS011;7225;59.282;18.344;2023-02-12T01:18:07;3.93;;;1.60;;
14282;SDS011;7225;59.282;18.344;2023-02-12T01:20:34;2.77;;;1.47;;
14282;SDS011;7225;59.282;18.344;2023-02-12T01:23:01;1.87;;;1.23;;
14282;SDS011;7225;59.282;18.344;2023-02-12T01:25:32;2.67;;;1.50;;
14282;SDS011;7225;59.282;18.344;2023-02-12T01:27:59;1.53;;;1.10;;
14282;SDS011;7225;59.282;18.344;2023-02-12T01:30:26;4.63;;;1.53;;
14282;SDS011;7225;59.282;18.344;2023-02-12T01:32:53;5.20;;;1.70;;
14282;SDS011;7225;59.282;18.344;2023-02-12T01:35:20;1.83;;;0.90;;
14282;SDS011;7225;59.282;18.344;2023-02-12T01:37:47;3.77;;;1.60;;
14282;SDS011;7225;59.282;18.344;2023-02-12T01:40:14;2.23;;;1.33;;
14282;SDS011;7225;59.282;18.344;2023-02-12T01:42:44;5.50;;;1.30;;
14282;SDS011;7225;59.282;18.344;2023-02-12T01:47:41;3.00;;;0.80;;
14282;SDS011;7225;59.282;18.344;2023-02-12T01:50:11;0.93;;;0.70;;
14282;SDS011;7225;59.282;18.344;2023-02-12T01:52:43;1.77;;;0.77;;
14282;SDS011;7225;59.282;18.344;2023-02-12T01:55:13;2.33;;;1.00;;
14282;SDS011;7225;59.282;18.344;2023-02-12T01:57:41;2.40;;;1.03;;
14282;SDS011;7225;59.282;18.344;2023-02-12T02:00:11;2.40;;;1.10;;
14282;SDS011;7225;59.282;18.344;2023-02-12T02:02:44;2.43;;;0.80;;
14282;SDS011;7225;59.282;18.344;2023-02-12T02:05:14;2.30;;;1.00;;
14282;SDS011;7225;59.282;18.344;2023-02-12T02:07:48;3.63;;;0.87;;
14282;SDS011;7225;59.282;18.344;2023-02-12T02:10:15;3.33;;;1.37;;
14282;SDS011;7225;59.282;18.344;2023-02-12T02:12:42;3.90;;;0.80;;
14282;SDS011;7225;59.282;18.344;2023-02-12T02:15:28;3.37;;;1.00;;
14282;SDS011;7225;59.282;18.344;2023-02-12T02:18:01;2.00;;;1.00;;
14282;SDS011;7225;59.282;18.344;2023-02-12T02:23:47;2.60;;;1.03;;
14282;SDS011;7225;59.282;18.344;2023-02-12T02:32:14;4.53;;;1.30;;
14282;SDS011;7225;59.282;18.344;2023-02-12T02:37:31;4.53;;;1.10;;
14282;SDS011;7225;59.282;18.344;2023-02-12T02:40:09;2.87;;;0.90;;
14282;SDS011;7225;59.282;18.344;2023-02-12T02:42:58;2.03;;;1.00;;
14282;SDS011;7225;59.282;18.344;2023-02-12T02:45:32;4.00;;;0.87;;
14282;SDS011;7225;59.282;18.344;2023-02-12T02:48:07;3.10;;;1.17;;
14282;SDS011;7225;59.282;18.344;2023-02-12T02:50:39;2.17;;;0.87;;
14282;SDS011;7225;59.282;18.344;2023-02-12T02:53:34;1.70;;;0.90;;
14282;SDS011;7225;59.282;18.344;2023-02-12T02:56:00;3.03;;;0.73;;
14282;SDS011;7225;59.282;18.344;2023-02-12T02:58:34;6.23;;;1.33;;
14282;SDS011;7225;59.282;18.344;2023-02-12T03:01:15;4.37;;;0.93;;
14282;SDS011;7225;59.282;18.344;2023-02-12T03:04:20;3.90;;;1.20;;
14282;SDS011;7225;59.282;18.344;2023-02-12T03:09:48;2.37;;;0.80;;
14282;SDS011;7225;59.282;18.344;2023-02-12T03:12:47;2.23;;;1.00;;
14282;SDS011;7225;59.282;18.344;2023-02-12T03:15:31;1.43;;;0.90;;
14282;SDS011;7225;59.282;18.344;2023-02-12T03:18:00;2.43;;;1.00;;
14282;SDS011;7225;59.282;18.344;2023-02-12T03:20:35;1.43;;;0.80;;
14282;SDS011;7225;59.282;18.344;2023-02-12T03:23:12;3.03;;;0.90;;
14282;SDS011;7225;59.282;18.344;2023-02-12T03:26:16;4.27;;;1.53;;
14282;SDS011;7225;59.282;18.344;2023-02-12T03:28:43;2.40;;;1.07;;
14282;SDS011;7225;59.282;18.344;2023-02-12T03:36:50;2.13;;;0.60;;
14282;SDS011;7225;59.282;18.344;2023-02-12T03:43:06;1.17;;;0.73;;
14282;SDS011;7225;59.282;18.344;2023-02-12T03:48:21;3.97;;;1.23;;
14282;SDS011;7225;59.282;18.344;2023-02-12T03:51:10;1.80;;;1.10;;
14282;SDS011;7225;59.282;18.344;2023-02-12T03:53:52;11.87;;;1.37;;
14282;SDS011;7225;59.282;18.344;2023-02-12T03:56:23;4.67;;;1.47;;
14282;SDS011;7225;59.282;18.344;2023-02-12T03:58:54;2.07;;;1.13;;
14282;SDS011;7225;59.282;18.344;2023-02-12T04:01:21;3.17;;;0.80;;
14282;SDS011;7225;59.282;18.344;2023-02-12T04:03:48;2.00;;;0.90;;
14282;SDS011;7225;59.282;18.344;2023-02-12T04:06:22;3.43;;;1.30;;
14282;SDS011;7225;59.282;18.344;2023-02-12T04:08:51;2.73;;;1.00;;
14282;SDS011;7225;59.282;18.344;2023-02-12T04:14:26;1.80;;;0.93;;
14282;SDS011;7225;59.282;18.344;2023-02-12T04:22:27;0.93;;;0.60;;
14282;SDS011;7225;59.282;18.344;2023-02-12T04:25:18;2.63;;;1.10;;
14282;SDS011;7225;59.282;18.344;2023-02-12T04:27:56;2.77;;;0.90;;
14282;SDS011;7225;59.282;18.344;2023-02-12T04:39:25;0.97;;;0.60;;
14282;SDS011;7225;59.282;18.344;2023-02-12T04:42:01;1.83;;;0.70;;
14282;SDS011;7225;59.282;18.344;2023-02-12T04:44:31;1.67;;;0.80;;
14282;SDS011;7225;59.282;18.344;2023-02-12T04:46:59;2.80;;;0.80;;
14282;SDS011;7225;59.282;18.344;2023-02-12T04:49:26;2.77;;;0.80;;
14282;SDS011;7225;59.282;18.344;2023-02-12T04:51:54;0.70;;;0.40;;
14282;SDS011;7225;59.282;18.344;2023-02-12T04:54:21;2.67;;;1.00;;
14282;SDS011;7225;59.282;18.344;2023-02-12T04:56:49;2.67;;;0.60;;
14282;SDS011;7225;59.282;18.344;2023-02-12T04:59:16;1.83;;;0.73;;
14282;SDS011;7225;59.282;18.344;2023-02-12T05:01:43;3.37;;;1.13;;
14282;SDS011;7225;59.282;18.344;2023-02-12T05:04:13;3.63;;;1.00;;
14282;SDS011;7225;59.282;18.344;2023-02-12T05:06:41;1.90;;;0.60;;
14282;SDS011;7225;59.282;18.344;2023-02-12T05:09:12;4.17;;;1.00;;
14282;SDS011;7225;59.282;18.344;2023-02-12T05:11:41;3.13;;;0.80;;
14282;SDS011;7225;59.282;18.344;2023-02-12T05:14:09;4.03;;;1.10;;
14282;SDS011;7225;59.282;18.344;2023-02-12T05:16:36;3.57;;;0.90;;
14282;SDS011;7225;59.282;18.344;2023-02-12T05:19:03;4.13;;;1.17;;
14282;SDS011;7225;59.282;18.344;2023-02-12T05:21:30;1.37;;;0.80;;
14282;SDS011;7225;59.282;18.344;2023-02-12T05:23:57;2.90;;;0.63;;
14282;SDS011;7225;59.282;18.344;2023-02-12T05:26:26;2.77;;;1.10;;
14282;SDS011;7225;59.282;18.344;2023-02-12T05:28:53;1.97;;;0.53;;
14282;SDS011;7225;59.282;18.344;2023-02-12T05:31:20;3.33;;;1.00;;
14282;SDS011;7225;59.282;18.344;2023-02-12T05:33:48;2.87;;;1.10;;
14282;SDS011;7225;59.282;18.344;2023-02-12T05:36:16;2.50;;;0.80;;
14282;SDS011;7225;59.282;18.344;2023-02-12T05:38:45;2.53;;;0.60;;
14282;SDS011;7225;59.282;18.344;2023-02-12T05:41:17;0.93;;;0.60;;
14282;SDS011;7225;59.282;18.344;2023-02-12T05:43:46;2.97;;;0.57;;
14282;SDS011;7225;59.282;18.344;2023-02-12T05:46:15;1.83;;;0.90;;
14282;SDS011;7225;59.282;18.344;2023-02-12T05:48:43;1.67;;;0.60;;
14282;SDS011;7225;59.282;18.344;2023-02-12T05:53:39;2.57;;;0.97;;
14282;SDS011;7225;59.282;18.344;2023-02-12T05:58:39;1.60;;;0.87;;
14282;SDS011;7225;59.282;18.344;2023-02-12T06:01:10;0.67;;;0.60;;
14282;SDS011;7225;59.282;18.344;2023-02-12T06:03:37;3.17;;;0.90;;
14282;SDS011;7225;59.282;18.344;2023-02-12T06:06:04;2.10;;;0.50;;
14282;SDS011;7225;59.282;18.344;2023-02-12T06:08:31;2.27;;;1.00;;
14282;SDS011;7225;59.282;18.344;2023-02-12T06:11:02;2.77;;;0.80;;
14282;SDS011;7225;59.282;18.344;2023-02-12T06:13:30;1.70;;;0.77;;
14282;SDS011;7225;59.282;18.344;2023-02-12T06:15:58;4.40;;;0.63;;
14282;SDS011;7225;59.282;18.344;2023-02-12T06:18:26;2.67;;;0.83;;
14282;SDS011;7225;59.282;18.344;2023-02-12T06:20:53;5.03;;;1.10;;
14282;SDS011;7225;59.282;18.344;2023-02-12T06:23:23;5.10;;;1.30;;
14282;SDS011;7225;59.282;18.344;2023-02-12T06:25:53;3.80;;;0.83;;
14282;SDS011;7225;59.282;18.344;2023-02-12T06:28:22;1.67;;;0.70;;
14282;SDS011;7225;59.282;18.344;2023-02-12T06:30:50;0.97;;;0.57;;
14282;SDS011;7225;59.282;18.344;2023-02-12T06:33:17;1.40;;;0.60;;
14282;SDS011;7225;59.282;18.344;2023-02-12T06:35:44;3.17;;;0.80;;
14282;SDS011;7225;59.282;18.344;2023-02-12T06:38:11;2.77;;;0.63;;
14282;SDS011;7225;59.282;18.344;2023-02-12T06:40:39;1.17;;;0.53;;
14282;SDS011;7225;59.282;18.344;2023-02-12T06:43:06;1.57;;;0.70;;
14282;SDS011;7225;59.282;18.344;2023-02-12T06:45:33;1.33;;;0.97;;
14282;SDS011;7225;59.282;18.344;2023-02-12T06:48:00;3.53;;;1.03;;
14282;SDS011;7225;59.282;18.344;2023-02-12T06:50:27;2.40;;;0.83;;
14282;SDS011;7225;59.282;18.344;2023-02-12T06:52:55;1.80;;;0.70;;
14282;SDS011;7225;59.282;18.344;2023-02-12T06:55:24;3.63;;;0.80;;
14282;SDS011;7225;59.282;18.344;2023-02-12T06:57:50;2.60;;;0.90;;
14282;SDS011;7225;59.282;18.344;2023-02-12T07:00:17;1.50;;;0.80;;
14282;SDS011;7225;59.282;18.344;2023-02-12T07:02:50;8.83;;;0.83;;
14282;SDS011;7225;59.282;18.344;2023-02-12T07:05:18;3.47;;;1.17;;
14282;SDS011;7225;59.282;18.344;2023-02-12T07:07:45;1.50;;;0.83;;
14282;SDS011;7225;59.282;18.344;2023-02-12T07:10:12;4.30;;;1.00;;
14282;SDS011;7225;59.282;18.344;2023-02-12T07:12:39;3.27;;;0.87;;
14282;SDS011;7225;59.282;18.344;2023-02-12T07:15:06;2.77;;;1.03;;
14282;SDS011;7225;59.282;18.344;2023-02-12T07:17:34;2.60;;;1.20;;
14282;SDS011;7225;59.282;18.344;2023-02-12T07:20:01;5.17;;;1.00;;
14282;SDS011;7225;59.282;18.344;2023-02-12T07:22:29;3.30;;;0.93;;
14282;SDS011;7225;59.282;18.344;2023-02-12T07:24:55;2.90;;;1.40;;
14282;SDS011;7225;59.282;18.344;2023-02-12T07:27:22;2.07;;;0.90;;
14282;SDS011;7225;59.282;18.344;2023-02-12T07:29:49;3.60;;;1.20;;
14282;SDS011;7225;59.282;18.344;2023-02-12T07:32:17;2.30;;;1.20;;
14282;SDS011;7225;59.282;18.344;2023-02-12T07:34:44;1.53;;;0.80;;
14282;SDS011;7225;59.282;18.344;2023-02-12T07:37:12;5.60;;;1.07;;
14282;SDS011;7225;59.282;18.344;2023-02-12T07:39:38;3.00;;;0.77;;
14282;SDS011;7225;59.282;18.344;2023-02-12T07:42:05;6.80;;;1.10;;
14282;SDS011;7225;59.282;18.344;2023-02-12T07:44:34;2.63;;;0.67;;
14282;SDS011;7225;59.282;18.344;2023-02-12T07:47:01;2.80;;;1.00;;
14282;SDS011;7225;59.282;18.344;2023-02-12T07:49:28;2.60;;;0.97;;
14282;SDS011;7225;59.282;18.344;2023-02-12T07:51:55;1.97;;;1.03;;
14282;SDS011;7225;59.282;18.344;2023-02-12T07:54:22;2.03;;;0.83;;
14282;SDS011;7225;59.282;18.344;2023-02-12T07:56:49;3.80;;;1.03;;
14282;SDS011;7225;59.282;18.344;2023-02-12T07:59:17;4.73;;;1.33;;
14282;SDS011;7225;59.282;18.344;2023-02-12T08:01:49;4.67;;;1.07;;
14282;SDS011;7225;59.282;18.344;2023-02-12T08:04:18;2.60;;;1.03;;
14282;SDS011;7225;59.282;18.344;2023-02-12T08:06:48;2.67;;;1.10;;
14282;SDS011;7225;59.282;18.344;2023-02-12T08:09:17;4.63;;;0.93;;
14282;SDS011;7225;59.282;18.344;2023-02-12T08:11:46;5.30;;;1.60;;
14282;SDS011;7225;59.282;18.344;2023-02-12T08:14:15;2.03;;;0.90;;
14282;SDS011;7225;59.282;18.344;2023-02-12T08:16:44;4.30;;;1.30;;
14282;SDS011;7225;59.282;18.344;2023-02-12T08:19:13;7.97;;;1.30;;
14282;SDS011;7225;59.282;18.344;2023-02-12T08:21:50;3.53;;;1.10;;
14282;SDS011;7225;59.282;18.344;2023-02-12T08:24:18;7.03;;;1.37;;
14282;SDS011;7225;59.282;18.344;2023-02-12T08:26:47;3.17;;;1.10;;
14282;SDS011;7225;59.282;18.344;2023-02-12T08:29:15;7.43;;;1.50;;
14282;SDS011;7225;59.282;18.344;2023-02-12T08:31:46;4.37;;;1.53;;
14282;SDS011;7225;59.282;18.344;2023-02-12T08:34:19;2.50;;;1.17;;
14282;SDS011;7225;59.282;18.344;2023-02-12T08:36:48;5.57;;;1.77;;
14282;SDS011;7225;59.282;18.344;2023-02-12T08:39:16;4.07;;;1.87;;
14282;SDS011;7225;59.282;18.344;2023-02-12T08:41:44;6.23;;;2.00;;
14282;SDS011;7225;59.282;18.344;2023-02-12T08:44:12;6.93;;;1.97;;
14282;SDS011;7225;59.282;18.344;2023-02-12T08:46:42;5.10;;;1.10;;
14282;SDS011;7225;59.282;18.344;2023-02-12T08:49:16;5.13;;;1.73;;
14282;SDS011;7225;59.282;18.344;2023-02-12T08:51:46;5.50;;;1.30;;
14282;SDS011;7225;59.282;18.344;2023-02-12T08:54:16;8.07;;;1.60;;
14282;SDS011;7225;59.282;18.344;2023-02-12T08:56:45;4.47;;;2.03;;
14282;SDS011;7225;59.282;18.344;2023-02-12T08:59:12;4.27;;;1.30;;
14282;SDS011;7225;59.282;18.344;2023-02-12T09:01:41;3.30;;;1.40;;
14282;SDS011;7225;59.282;18.344;2023-02-12T09:04:11;4.07;;;1.60;;
14282;SDS011;7225;59.282;18.344;2023-02-12T09:06:47;6.60;;;1.60;;
14282;SDS011;7225;59.282;18.344;2023-02-12T09:09:14;4.50;;;2.20;;
14282;SDS011;7225;59.282;18.344;2023-02-12T09:11:42;4.57;;;1.13;;
14282;SDS011;7225;59.282;18.344;2023-02-12T09:14:13;2.77;;;1.30;;
14282;SDS011;7225;59.282;18.344;2023-02-12T09:16:42;3.80;;;1.33;;
14282;SDS011;7225;59.282;18.344;2023-02-12T09:19:11;3.80;;;1.70;;
14282;SDS011;7225;59.282;18.344;2023-02-12T09:21:39;7.00;;;1.80;;
14282;SDS011;7225;59.282;18.344;2023-02-12T09:24:06;2.23;;;1.13;;
14282;SDS011;7225;59.282;18.344;2023-02-12T09:26:34;5.73;;;2.07;;
14282;SDS011;7225;59.282;18.344;2023-02-12T09:29:01;8.50;;;2.30;;
14282;SDS011;7225;59.282;18.344;2023-02-12T09:31:30;5.57;;;2.03;;
14282;SDS011;7225;59.282;18.344;2023-02-12T09:33:59;9.50;;;1.80;;
14282;SDS011;7225;59.282;18.344;2023-02-12T09:36:28;5.50;;;1.83;;
14282;SDS011;7225;59.282;18.344;2023-02-12T09:38:56;3.73;;;1.63;;
14282;SDS011;7225;59.282;18.344;2023-02-12T09:44:24;5.50;;;2.00;;
14282;SDS011;7225;59.282;18.344;2023-02-12T09:47:00;7.20;;;1.57;;
14282;SDS011;7225;59.282;18.344;2023-02-12T09:52:15;3.67;;;1.60;;
14282;SDS011;7225;59.282;18.344;2023-02-12T09:54:44;7.67;;;1.50;;
14282;SDS011;7225;59.282;18.344;2023-02-12T09:57:18;6.33;;;1.77;;
14282;SDS011;7225;59.282;18.344;2023-02-12T09:59:48;8.63;;;1.40;;
14282;SDS011;7225;59.282;18.344;2023-02-12T10:02:19;7.00;;;2.27;;
14282;SDS011;7225;59.282;18.344;2023-02-12T10:04:48;7.00;;;2.70;;
14282;SDS011;7225;59.282;18.344;2023-02-12T10:07:46;5.53;;;1.87;;
14282;SDS011;7225;59.282;18.344;2023-02-12T10:10:26;6.07;;;1.30;;
14282;SDS011;7225;59.282;18.344;2023-02-12T10:13:07;3.73;;;1.43;;
14282;SDS011;7225;59.282;18.344;2023-02-12T10:21:04;5.43;;;1.70;;
14282;SDS011;7225;59.282;18.344;2023-02-12T10:28:58;10.23;;;2.30;;
14282;SDS011;7225;59.282;18.344;2023-02-12T10:31:36;6.27;;;1.67;;
14282;SDS011;7225;59.282;18.344;2023-02-12T10:34:13;11.33;;;2.17;;
14282;SDS011;7225;59.282;18.344;2023-02-12T10:36:49;8.07;;;1.47;;
14282;SDS011;7225;59.282;18.344;2023-02-12T10:39:21;7.63;;;1.77;;
14282;SDS011;7225;59.282;18.344;2023-02-12T10:44:33;7.07;;;1.73;;
14282;SDS011;7225;59.282;18.344;2023-02-12T10:47:00;7.33;;;2.77;;
14282;SDS011;7225;59.282;18.344;2023-02-12T10:49:28;9.50;;;1.97;;
14282;SDS011;7225;59.282;18.344;2023-02-12T10:54:49;9.57;;;1.83;;
14282;SDS011;7225;59.282;18.344;2023-02-12T10:57:21;7.13;;;2.40;;
14282;SDS011;7225;59.282;18.344;2023-02-12T10:59:58;5.80;;;2.37;;
14282;SDS011;7225;59.282;18.344;2023-02-12T11:02:41;8.50;;;2.73;;
14282;SDS011;7225;59.282;18.344;2023-02-12T11:05:30;9.23;;;2.13;;
14282;SDS011;7225;59.282;18.344;2023-02-12T11:08:01;11.73;;;2.20;;
14282;SDS011;7225;59.282;18.344;2023-02-12T11:10:33;12.60;;;1.90;;
14282;SDS011;7225;59.282;18.344;2023-02-12T11:13:04;6.70;;;1.90;;
14282;SDS011;7225;59.282;18.344;2023-02-12T11:15:45;7.20;;;2.27;;
14282;SDS011;7225;59.282;18.344;2023-02-12T11:18:26;5.50;;;1.83;;
14282;SDS011;7225;59.282;18.344;2023-02-12T11:20:59;12.03;;;1.70;;
14282;SDS011;7225;59.282;18.344;2023-02-12T11:26:06;6.90;;;2.17;;
14282;SDS011;7225;59.282;18.344;2023-02-12T11:31:20;7.30;;;1.80;;
14282;SDS011;7225;59.282;18.344;2023-02-12T11:34:11;6.70;;;2.10;;
14282;SDS011;7225;59.282;18.344;2023-02-12T11:36:45;6.83;;;2.27;;
14282;SDS011;7225;59.282;18.344;2023-02-12T11:42:15;6.83;;;1.83;;
14282;SDS011;7225;59.282;18.344;2023-02-12T11:44:55;8.63;;;2.00;;
14282;SDS011;7225;59.282;18.344;2023-02-12T11:47:26;7.93;;;2.20;;
14282;SDS011;7225;59.282;18.344;2023-02-12T11:50:38;6.33;;;2.40;;
14282;SDS011;7225;59.282;18.344;2023-02-12T11:53:02;10.80;;;2.67;;
14282;SDS011;7225;59.282;18.344;2023-02-12T11:55:35;9.33;;;2.43;;
14282;SDS011;7225;59.282;18.344;2023-02-12T11:58:13;7.70;;;2.03;;
14282;SDS011;7225;59.282;18.344;2023-02-12T12:00:52;4.30;;;1.57;;
14282;SDS011;7225;59.282;18.344;2023-02-12T12:08:56;9.10;;;2.30;;
14282;SDS011;7225;59.282;18.344;2023-02-12T12:14:34;5.47;;;1.87;;
14282;SDS011;7225;59.282;18.344;2023-02-12T12:18:11;6.23;;;2.23;;
14282;SDS011;7225;59.282;18.344;2023-02-12T12:20:53;9.43;;;2.00;;
14282;SDS011;7225;59.282;18.344;2023-02-12T12:26:13;6.70;;;1.60;;
14282;SDS011;7225;59.282;18.344;2023-02-12T12:31:32;8.80;;;2.23;;
14282;SDS011;7225;59.282;18.344;2023-02-12T12:34:09;6.87;;;1.67;;
14282;SDS011;7225;59.282;18.344;2023-02-12T12:56:53;7.87;;;1.90;;
14282;SDS011;7225;59.282;18.344;2023-02-12T13:02:43;4.80;;;1.67;;
14282;SDS011;7225;59.282;18.344;2023-02-12T13:13:32;4.80;;;1.50;;
14282;SDS011;7225;59.282;18.344;2023-02-12T13:32:41;8.33;;;2.03;;
14282;SDS011;7225;59.282;18.344;2023-02-12T13:35:30;4.17;;;1.73;;
14282;SDS011;7225;59.282;18.344;2023-02-12T13:37:57;7.93;;;2.30;;
14282;SDS011;7225;59.282;18.344;2023-02-12T13:40:26;6.53;;;2.23;;
14282;SDS011;7225;59.282;18.344;2023-02-12T13:42:56;6.07;;;1.73;;
14282;SDS011;7225;59.282;18.344;2023-02-12T14:04:52;6.57;;;2.13;;
14282;SDS011;7225;59.282;18.344;2023-02-12T14:07:48;6.17;;;1.70;;
14282;SDS011;7225;59.282;18.344;2023-02-12T14:10:21;8.47;;;2.30;;
14282;SDS011;7225;59.282;18.344;2023-02-12T14:12:55;7.57;;;2.03;;
14282;SDS011;7225;59.282;18.344;2023-02-12T14:15:35;8.33;;;2.43;;
14282;SDS011;7225;59.282;18.344;2023-02-12T14:18:27;10.03;;;2.50;;
14282;SDS011;7225;59.282;18.344;2023-02-12T14:23:38;8.30;;;2.27;;
14282;SDS011;7225;59.282;18.344;2023-02-12T14:26:09;8.23;;;2.00;;
14282;SDS011;7225;59.282;18.344;2023-02-12T14:33:45;8.67;;;2.80;;
14282;SDS011;7225;59.282;18.344;2023-02-12T14:36:39;8.50;;;2.47;;
14282;SDS011;7225;59.282;18.344;2023-02-12T14:41:50;11.07;;;2.60;;
14282;SDS011;7225;59.282;18.344;2023-02-12T14:46:59;8.30;;;2.80;;
14282;SDS011;7225;59.282;18.344;2023-02-12T14:52:15;10.43;;;2.20;;
14282;SDS011;7225;59.282;18.344;2023-02-12T14:59:57;5.50;;;2.57;;
14282;SDS011;7225;59.282;18.344;2023-02-12T15:02:44;5.50;;;2.00;;
14282;SDS011;7225;59.282;18.344;2023-02-12T15:05:25;5.07;;;2.27;;
14282;SDS011;7225;59.282;18.344;2023-02-12T15:19:37;6.80;;;2.07;;
14282;SDS011;7225;59.282;18.344;2023-02-12T15:22:32;10.53;;;2.53;;
14282;SDS011;7225;59.282;18.344;2023-02-12T15:28:26;8.30;;;2.33;;
14282;SDS011;7225;59.282;18.344;2023-02-12T15:30:47;8.93;;;2.13;;
14282;SDS011;7225;59.282;18.344;2023-02-12T15:33:23;6.57;;;2.37;;
14282;SDS011;7225;59.282;18.344;2023-02-12T15:35:54;5.23;;;2.03;;
14282;SDS011;7225;59.282;18.344;2023-02-12T15:38:26;5.07;;;2.23;;
14282;SDS011;7225;59.282;18.344;2023-02-12T15:41:21;10.87;;;2.57;;
14282;SDS011;7225;59.282;18.344;2023-02-12T15:43:51;6.43;;;1.90;;
14282;SDS011;7225;59.282;18.344;2023-02-12T15:46:17;7.43;;;2.27;;
14282;SDS011;7225;59.282;18.344;2023-02-12T15:48:46;6.17;;;2.10;;
14282;SDS011;7225;59.282;18.344;2023-02-12T15:54:00;7.43;;;2.60;;
14282;SDS011;7225;59.282;18.344;2023-02-12T15:56:31;7.50;;;2.13;;
14282;SDS011;7225;59.282;18.344;2023-02-12T15:59:00;7.37;;;2.20;;
14282;SDS011;7225;59.282;18.344;2023-02-12T16:01:29;6.77;;;1.93;;
14282;SDS011;7225;59.282;18.344;2023-02-12T16:03:59;8.30;;;2.43;;
14282;SDS011;7225;59.282;18.344;2023-02-12T16:06:31;5.47;;;2.13;;
14282;SDS011;7225;59.282;18.344;2023-02-12T16:09:22;8.70;;;2.23;;
14282;SDS011;7225;59.282;18.344;2023-02-12T16:11:54;8.73;;;2.33;;
14282;SDS011;7225;59.282;18.344;2023-02-12T16:22:47;5.10;;;2.07;;
14282;SDS011;7225;59.282;18.344;2023-02-12T16:25:23;11.47;;;3.07;;
14282;SDS011;7225;59.282;18.344;2023-02-12T16:27:55;6.90;;;1.83;;
14282;SDS011;7225;59.282;18.344;2023-02-12T16:33:00;5.83;;;2.43;;
14282;SDS011;7225;59.282;18.344;2023-02-12T16:35:29;9.37;;;2.40;;
14282;SDS011;7225;59.282;18.344;2023-02-12T16:38:03;5.80;;;2.20;;
14282;SDS011;7225;59.282;18.344;2023-02-12T16:44:27;6.73;;;3.37;;
14282;SDS011;7225;59.282;18.344;2023-02-12T16:46:44;7.33;;;3.13;;
14282;SDS011;7225;59.282;18.344;2023-02-12T16:49:17;7.17;;;2.47;;
14282;SDS011;7225;59.282;18.344;2023-02-12T16:51:47;6.53;;;2.10;;
14282;SDS011;7225;59.282;18.344;2023-02-12T16:54:33;10.73;;;2.50;;
14282;SDS011;7225;59.282;18.344;2023-02-12T16:57:00;7.27;;;2.53;;
14282;SDS011;7225;59.282;18.344;2023-02-12T16:59:28;5.77;;;2.43;;
14282;SDS011;7225;59.282;18.344;2023-02-12T17:01:56;6.07;;;2.60;;
14282;SDS011;7225;59.282;18.344;2023-02-12T17:04:26;6.10;;;1.90;;
14282;SDS011;7225;59.282;18.344;2023-02-12T17:06:53;10.13;;;2.90;;
14282;SDS011;7225;59.282;18.344;2023-02-12T17:09:20;5.43;;;2.20;;
14282;SDS011;7225;59.282;18.344;2023-02-12T17:11:47;7.13;;;2.63;;
14282;SDS011;7225;59.282;18.344;2023-02-12T17:14:15;9.07;;;2.73;;
14282;SDS011;7225;59.282;18.344;2023-02-12T17:16:44;6.07;;;2.80;;
14282;SDS011;7225;59.282;18.344;2023-02-12T17:19:12;11.47;;;3.30;;
14282;SDS011;7225;59.282;18.344;2023-02-12T17:21:43;7.00;;;2.53;;
14282;SDS011;7225;59.282;18.344;2023-02-12T17:24:17;11.17;;;3.70;;
14282;SDS011;7225;59.282;18.344;2023-02-12T17:26:46;4.20;;;2.30;;
14282;SDS011;7225;59.282;18.344;2023-02-12T17:29:16;7.93;;;2.93;;
14282;SDS011;7225;59.282;18.344;2023-02-12T17:31:44;4.50;;;2.40;;
14282;SDS011;7225;59.282;18.344;2023-02-12T17:34:13;5.00;;;2.90;;
14282;SDS011;7225;59.282;18.344;2023-02-12T17:36:41;6.43;;;2.83;;
14282;SDS011;7225;59.282;18.344;2023-02-12T17:39:10;7.30;;;2.53;;
14282;SDS011;7225;59.282;18.344;2023-02-12T17:41:38;7.63;;;2.47;;
14282;SDS011;7225;59.282;18.344;2023-02-12T17:44:06;4.33;;;2.00;;
14282;SDS011;7225;59.282;18.344;2023-02-12T17:46:33;5.03;;;2.20;;
14282;SDS011;7225;59.282;18.344;2023-02-12T17:49:00;6.17;;;1.97;;
14282;SDS011;7225;59.282;18.344;2023-02-12T17:51:28;3.87;;;2.03;;
14282;SDS011;7225;59.282;18.344;2023-02-12T17:53:56;4.87;;;1.87;;
14282;SDS011;7225;59.282;18.344;2023-02-12T17:56:23;6.20;;;2.40;;
14282;SDS011;7225;59.282;18.344;2023-02-12T17:58:51;6.73;;;2.10;;
14282;SDS011;7225;59.282;18.344;2023-02-12T18:01:19;7.30;;;2.40;;
14282;SDS011;7225;59.282;18.344;2023-02-12T18:03:47;7.33;;;2.20;;
14282;SDS011;7225;59.282;18.344;2023-02-12T18:06:23;6.20;;;2.13;;
14282;SDS011;7225;59.282;18.344;2023-02-12T18:08:51;6.97;;;2.17;;
14282;SDS011;7225;59.282;18.344;2023-02-12T18:11:19;5.90;;;1.83;;
14282;SDS011;7225;59.282;18.344;2023-02-12T18:13:47;5.30;;;2.63;;
14282;SDS011;7225;59.282;18.344;2023-02-12T18:16:18;6.53;;;1.70;;
14282;SDS011;7225;59.282;18.344;2023-02-12T18:18:45;7.10;;;2.50;;
14282;SDS011;7225;59.282;18.344;2023-02-12T18:21:13;4.30;;;1.73;;
14282;SDS011;7225;59.282;18.344;2023-02-12T18:23:40;2.93;;;1.40;;
14282;SDS011;7225;59.282;18.344;2023-02-12T18:26:09;6.20;;;1.60;;
14282;SDS011;7225;59.282;18.344;2023-02-12T18:28:37;4.80;;;1.90;;
14282;SDS011;7225;59.282;18.344;2023-02-12T18:31:05;4.83;;;1.90;;
14282;SDS011;7225;59.282;18.344;2023-02-12T18:33:33;5.20;;;1.73;;
14282;SDS011;7225;59.282;18.344;2023-02-12T18:36:01;6.40;;;2.30;;
14282;SDS011;7225;59.282;18.344;2023-02-12T18:38:36;7.70;;;1.97;;
14282;SDS011;7225;59.282;18.344;2023-02-12T18:41:12;4.57;;;1.60;;
14282;SDS011;7225;59.282;18.344;2023-02-12T18:43:41;3.23;;;1.40;;
14282;SDS011;7225;59.282;18.344;2023-02-12T18:46:11;3.87;;;1.50;;
14282;SDS011;7225;59.282;18.344;2023-02-12T18:48:46;4.00;;;1.90;;
14282;SDS011;7225;59.282;18.344;2023-02-12T18:51:13;5.10;;;1.80;;